createdAt,value
2022-08-10T00:03:30.277Z,99.90
2022-08-10T00:06:05.973Z,99.90
2022-08-10T00:08:39.661Z,99.90
2022-08-10T00:13:50.518Z,99.90
2022-08-10T00:16:25.557Z,99.90
2022-08-10T00:19:04.240Z,99.90
2022-08-10T00:27:51.898Z,99.90
2022-08-10T00:29:55.063Z,99.90
2022-08-10T00:32:29.815Z,99.90
2022-08-10T00:35:04.521Z,99.90
2022-08-10T00:37:36.117Z,99.90
2022-08-10T00:40:09.939Z,99.90
2022-08-10T00:42:46.333Z,99.90
2022-08-10T00:45:17.538Z,99.90
2022-08-10T00:47:52.544Z,99.90
2022-08-10T00:52:59.612Z,99.90
2022-08-10T00:56:38.408Z,99.90
2022-08-10T00:58:31.191Z,99.90
2022-08-10T01:01:05.915Z,99.90
2022-08-10T01:04:40.027Z,99.90
2022-08-10T01:06:37.955Z,99.90
2022-08-10T01:09:16.596Z,99.90
2022-08-10T01:12:40.842Z,99.90
2022-08-10T01:14:51.225Z,99.90
2022-08-10T01:17:23.290Z,99.90
2022-08-10T01:20:30.285Z,99.90
2022-08-10T01:23:14.599Z,99.90
2022-08-10T01:26:11.562Z,99.90
2022-08-10T01:28:55.262Z,99.90
2022-08-10T01:31:29.444Z,99.90
2022-08-10T01:34:02.977Z,99.90
2022-08-10T01:36:37.075Z,99.90
2022-08-10T01:39:08.819Z,99.90
2022-08-10T01:41:45.844Z,99.90
2022-08-10T01:44:20.163Z,99.90
2022-08-10T01:46:56.862Z,99.90
2022-08-10T01:49:28.882Z,99.90
2022-08-10T01:52:01.820Z,99.90
2022-08-10T01:54:35.072Z,99.90
2022-08-10T01:57:06.565Z,99.90
2022-08-10T02:02:10.640Z,99.90
2022-08-10T02:04:41.170Z,99.90
2022-08-10T02:07:13.141Z,99.90
2022-08-10T02:09:43.615Z,99.90
2022-08-10T02:14:43.329Z,99.90
2022-08-10T02:17:59.838Z,99.90
2022-08-10T02:20:06.720Z,99.90
2022-08-10T02:22:45.928Z,99.90
2022-08-10T02:25:41.574Z,99.90
2022-08-10T02:28:05.360Z,99.90
2022-08-10T02:30:35.126Z,99.90
2022-08-10T02:33:05.845Z,99.90
2022-08-10T02:35:53.746Z,99.90
2022-08-10T02:38:57.451Z,99.90
2022-08-10T02:45:15.498Z,99.90
2022-08-10T02:45:29.047Z,99.90
2022-08-10T02:46:59.999Z,99.90
2022-08-10T02:49:34.011Z,99.90
2022-08-10T02:52:06.451Z,99.90
2022-08-10T02:54:39.861Z,99.90
2022-08-10T02:57:11.301Z,99.90
2022-08-10T02:59:43.162Z,99.90
2022-08-10T03:02:13.447Z,99.90
2022-08-10T03:04:55.378Z,99.90
2022-08-10T03:07:43.598Z,99.90
2022-08-10T03:10:17.485Z,99.90
2022-08-10T03:12:48.798Z,99.90
2022-08-10T03:15:19.645Z,99.90
2022-08-10T03:17:57.544Z,99.90
2022-08-10T03:20:36.504Z,99.90
2022-08-10T03:23:09.040Z,99.90
2022-08-10T03:25:38.065Z,99.90
2022-08-10T03:28:07.061Z,99.90
2022-08-10T03:30:36.174Z,99.90
2022-08-10T03:33:06.018Z,99.90
2022-08-10T03:35:36.246Z,99.90
2022-08-10T03:38:04.946Z,99.90
2022-08-10T03:40:46.475Z,99.90
2022-08-10T03:43:18.022Z,99.90
2022-08-10T03:45:55.091Z,99.90
2022-08-10T03:48:32.107Z,99.90
2022-08-10T03:51:15.855Z,99.90
2022-08-10T03:54:04.539Z,99.90
2022-08-10T03:56:34.748Z,99.90
2022-08-10T03:59:03.480Z,99.90
2022-08-10T04:02:45.243Z,99.90
2022-08-10T04:04:24.779Z,99.90
2022-08-10T04:06:57.059Z,99.90
2022-08-10T04:09:43.144Z,99.90
2022-08-10T04:12:16.374Z,99.90
2022-08-10T04:17:18.834Z,99.90
2022-08-10T04:20:09.048Z,99.90
2022-08-10T04:22:39.119Z,99.90
2022-08-10T04:25:09.382Z,99.90
2022-08-10T04:27:38.319Z,99.90
2022-08-10T04:30:07.323Z,99.90
2022-08-10T04:32:37.649Z,99.90
2022-08-10T04:35:10.146Z,99.90
2022-08-10T04:37:47.004Z,99.90
2022-08-10T04:40:25.188Z,99.90
2022-08-10T04:43:07.458Z,99.90
2022-08-10T04:45:49.471Z,99.90
2022-08-10T04:48:42.551Z,99.90
2022-08-10T04:51:11.159Z,99.90
2022-08-10T04:54:05.809Z,99.90
2022-08-10T04:56:36.172Z,99.90
2022-08-10T04:59:06.292Z,99.90
2022-08-10T05:02:12.465Z,99.90
2022-08-10T05:04:37.109Z,99.90
2022-08-10T05:07:08.152Z,99.90
2022-08-10T05:10:02.146Z,99.90
2022-08-10T05:12:27.405Z,99.90
2022-08-10T05:14:56.155Z,99.90
2022-08-10T05:17:24.884Z,99.90
2022-08-10T05:20:02.147Z,99.90
2022-08-10T05:22:36.745Z,99.90
2022-08-10T05:25:08.170Z,99.90
2022-08-10T05:27:36.792Z,99.90
2022-08-10T05:30:05.747Z,99.90
2022-08-10T05:32:56.435Z,99.90
2022-08-10T05:35:23.474Z,99.90
2022-08-10T05:38:09.004Z,99.90
2022-08-10T05:40:47.357Z,99.90
2022-08-10T05:43:17.906Z,99.90
2022-08-10T05:46:18.285Z,99.90
2022-08-10T05:48:58.084Z,99.90
2022-08-10T05:51:24.589Z,99.90
2022-08-10T05:54:01.206Z,99.90
2022-08-10T05:56:54.726Z,99.90
2022-08-10T06:00:31.076Z,99.90
2022-08-10T06:02:34.099Z,99.90
2022-08-10T06:05:08.159Z,99.90
2022-08-10T06:07:38.962Z,99.90
2022-08-10T06:10:10.650Z,99.90
2022-08-10T06:12:55.119Z,99.90
2022-08-10T06:15:51.878Z,99.90
2022-08-10T06:18:14.573Z,99.90
2022-08-10T06:20:43.453Z,99.90
2022-08-10T06:23:12.526Z,99.90
2022-08-10T06:26:08.762Z,99.90
2022-08-10T06:28:33.822Z,99.90
2022-08-10T06:31:04.120Z,99.90
2022-08-10T06:36:02.673Z,99.90
2022-08-10T06:43:30.106Z,99.90
2022-08-10T06:46:06.828Z,99.90
2022-08-10T06:48:39.071Z,99.90
2022-08-10T06:51:09.158Z,99.90
2022-08-10T06:53:54.020Z,99.90
2022-08-10T06:56:36.520Z,99.90
2022-08-10T06:59:13.320Z,99.90
2022-08-10T07:01:55.449Z,99.90
2022-08-10T07:04:33.300Z,99.90
2022-08-10T07:07:04.535Z,99.90
2022-08-10T07:12:07.842Z,99.90
2022-08-10T07:14:39.945Z,99.90
2022-08-10T07:17:15.707Z,99.90
2022-08-10T07:19:50.213Z,99.90
2022-08-10T07:23:01.206Z,99.90
2022-08-10T07:25:13.167Z,99.90
2022-08-10T07:28:00.901Z,99.90
2022-08-10T07:30:31.697Z,99.90
2022-08-10T07:33:03.575Z,99.90
2022-08-10T07:35:42.499Z,99.90
2022-08-10T07:38:17.105Z,99.90
2022-08-10T07:40:46.378Z,99.90
2022-08-10T07:45:43.852Z,99.90
2022-08-10T07:48:16.220Z,99.90
2022-08-10T07:50:46.284Z,99.90
2022-08-10T07:53:18.762Z,99.90
2022-08-10T07:56:03.448Z,99.90
2022-08-10T07:58:39.542Z,99.90
2022-08-10T08:01:16.115Z,99.90
2022-08-10T08:04:05.758Z,99.90
2022-08-10T08:06:39.599Z,99.90
2022-08-10T08:09:08.444Z,99.90
2022-08-10T08:11:37.754Z,99.90
2022-08-10T08:14:07.824Z,99.90
2022-08-10T08:16:37.577Z,99.90
2022-08-10T08:24:06.417Z,99.90
2022-08-10T08:24:46.975Z,99.90
2022-08-10T08:27:16.981Z,99.90
2022-08-10T08:29:46.084Z,99.90
2022-08-10T08:32:17.173Z,99.90
2022-08-10T08:34:50.210Z,99.90
2022-08-10T08:38:28.779Z,99.90
2022-08-10T08:40:12.938Z,99.90
2022-08-10T08:42:57.132Z,99.90
2022-08-10T08:45:29.726Z,99.90
2022-08-10T08:48:25.499Z,99.90
2022-08-10T08:51:02.816Z,99.90
2022-08-10T08:54:03.054Z,99.90
2022-08-10T08:56:28.549Z,99.90
2022-08-10T08:59:12.454Z,99.90
2022-08-10T09:01:51.353Z,99.90
2022-08-10T09:04:28.735Z,99.90
2022-08-10T09:07:59.149Z,99.90
2022-08-10T09:12:39.806Z,99.90
2022-08-10T09:15:10.465Z,99.90
2022-08-10T09:18:03.751Z,99.90
2022-08-10T09:20:35.981Z,99.90
2022-08-10T09:23:10.923Z,99.90
2022-08-10T09:25:45.526Z,99.90
2022-08-10T09:28:21.603Z,99.90
2022-08-10T09:31:20.681Z,99.90
2022-08-10T09:36:27.870Z,99.90
2022-08-10T09:36:44.093Z,99.90
2022-08-10T09:40:56.505Z,99.90
2022-08-10T09:42:14.743Z,99.90
2022-08-10T09:44:58.474Z,99.90
2022-08-10T09:47:59.959Z,99.90
2022-08-10T09:50:47.611Z,99.90
2022-08-10T09:53:21.723Z,99.90
2022-08-10T09:56:17.550Z,99.90
2022-08-10T09:58:47.838Z,99.90
2022-08-10T10:01:57.718Z,99.90
2022-08-10T10:04:12.847Z,99.90
2022-08-10T10:06:45.180Z,99.90
2022-08-10T10:09:18.924Z,99.90
2022-08-10T10:12:09.314Z,99.90
2022-08-10T10:15:01.877Z,99.90
2022-08-10T10:17:38.323Z,99.90
2022-08-10T10:20:10.563Z,99.90
2022-08-10T10:22:53.904Z,99.90
2022-08-10T10:25:49.830Z,99.90
2022-08-10T10:28:21.651Z,99.90
2022-08-10T10:30:55.593Z,99.90
2022-08-10T10:33:30.287Z,99.90
2022-08-10T10:36:02.175Z,99.90
2022-08-10T10:38:33.649Z,99.90
2022-08-10T10:41:09.389Z,99.90
2022-08-10T10:43:46.114Z,99.90
2022-08-10T10:46:23.247Z,99.90
2022-08-10T10:48:55.551Z,99.90
2022-08-10T10:51:28.286Z,99.90
2022-08-10T10:54:02.890Z,99.90
2022-08-10T10:56:36.216Z,99.90
2022-08-10T10:59:33.438Z,99.90
2022-08-10T11:02:06.525Z,99.90
2022-08-10T11:04:38.017Z,99.90
2022-08-10T11:07:13.170Z,99.90
2022-08-10T11:10:06.044Z,99.90
2022-08-10T11:12:40.684Z,99.90
2022-08-10T11:17:47.983Z,99.90
2022-08-10T11:20:18.961Z,99.90
2022-08-10T11:22:51.644Z,99.90
2022-08-10T11:25:23.361Z,99.90
2022-08-10T11:27:56.940Z,99.90
2022-08-10T11:30:28.622Z,99.90
2022-08-10T11:33:08.437Z,99.90
2022-08-10T11:35:39.758Z,99.90
2022-08-10T11:38:34.264Z,99.90
2022-08-10T11:42:09.116Z,99.90
2022-08-10T11:43:58.190Z,99.90
2022-08-10T11:46:31.747Z,99.90
2022-08-10T11:49:04.984Z,99.90
2022-08-10T11:51:39.203Z,99.90
2022-08-10T11:54:10.155Z,99.90
2022-08-10T11:56:45.685Z,99.90
2022-08-10T11:59:32.762Z,99.90
2022-08-10T12:02:01.703Z,99.90
2022-08-10T12:04:32.800Z,99.90
2022-08-10T12:10:03.617Z,99.90
2022-08-10T12:10:04.378Z,99.90
2022-08-10T12:12:45.807Z,99.90
2022-08-10T12:15:17.927Z,95.80
2022-08-10T12:17:49.334Z,93.80
2022-08-10T12:20:25.874Z,93.70
2022-08-10T12:22:56.885Z,87.20
2022-08-10T12:25:56.926Z,79.60
2022-08-10T12:28:19.507Z,71.10
2022-08-10T12:30:51.272Z,69.00
2022-08-10T12:33:22.789Z,64.00
2022-08-10T12:36:17.410Z,64.30
2022-08-10T12:38:51.767Z,63.10
2022-08-10T12:41:43.725Z,55.70
2022-08-10T12:44:12.936Z,53.70
2022-08-10T12:46:43.253Z,56.30
2022-08-10T12:49:14.866Z,53.70
2022-08-10T12:51:49.834Z,52.80
2022-08-10T12:54:31.751Z,50.50
2022-08-10T12:57:02.960Z,58.10
2022-08-10T12:59:32.787Z,56.70
2022-08-10T13:04:42.394Z,57.00
2022-08-10T13:08:25.021Z,57.90
2022-08-10T13:10:05.362Z,62.70
2022-08-10T13:12:40.361Z,63.90
2022-08-10T13:15:43.268Z,68.50
2022-08-10T13:18:06.032Z,66.90
2022-08-10T13:20:50.909Z,67.20
2022-08-10T13:23:22.352Z,68.70
2022-08-10T13:25:52.818Z,70.10
2022-08-10T13:28:36.510Z,74.20
2022-08-10T13:31:11.552Z,75.20
2022-08-10T13:34:39.122Z,74.60
2022-08-10T13:36:36.641Z,77.20
2022-08-10T13:39:07.378Z,77.60
2022-08-10T13:41:38.907Z,77.10
2022-08-10T13:44:08.496Z,76.70
2022-08-10T13:46:40.367Z,78.80
2022-08-10T13:49:11.081Z,77.50
2022-08-10T13:51:53.945Z,79.00
2022-08-10T13:54:30.289Z,80.50
2022-08-10T13:56:59.249Z,82.00
2022-08-10T14:00:35.305Z,80.00
2022-08-10T14:02:23.947Z,82.60
2022-08-10T14:04:53.542Z,88.30
2022-08-10T14:07:23.246Z,76.90
2022-08-10T14:09:53.387Z,78.50
2022-08-10T14:12:31.789Z,77.20
2022-08-10T14:15:03.551Z,77.10
2022-08-10T14:17:33.208Z,78.90
2022-08-10T14:20:02.603Z,80.50
2022-08-10T14:22:34.147Z,79.30
2022-08-10T14:25:11.096Z,80.70
2022-08-10T14:28:02.350Z,82.40
2022-08-10T14:30:31.292Z,84.80
2022-08-10T14:33:04.260Z,85.30
2022-08-10T14:36:21.673Z,86.30
2022-08-10T14:38:25.577Z,87.50
2022-08-10T14:40:58.092Z,87.40
2022-08-10T14:43:29.185Z,86.00
2022-08-10T14:46:01.438Z,86.10
2022-08-10T14:48:33.226Z,86.90
2022-08-10T14:51:02.886Z,86.60
2022-08-10T14:53:34.692Z,86.80
2022-08-10T14:56:07.286Z,86.30
2022-08-10T14:58:38.495Z,87.80
2022-08-10T15:01:08.785Z,87.50
2022-08-10T15:03:58.803Z,87.30
2022-08-10T15:06:31.303Z,83.80
2022-08-10T15:09:05.433Z,77.70
2022-08-10T15:12:13.652Z,77.00
2022-08-10T15:14:42.640Z,76.60
2022-08-10T15:17:13.506Z,74.80
2022-08-10T15:20:02.819Z,78.30
2022-08-10T15:22:49.941Z,82.20
2022-08-10T15:25:25.110Z,78.30
2022-08-10T15:28:04.985Z,82.00
2022-08-10T15:30:39.568Z,80.40
2022-08-10T15:34:02.002Z,85.80
2022-08-10T15:39:05.007Z,73.30
2022-08-10T15:41:59.168Z,75.80
2022-08-10T15:44:43.647Z,76.80
2022-08-10T15:47:15.210Z,77.60
2022-08-10T15:49:46.965Z,76.60
2022-08-10T15:52:40.100Z,74.50
2022-08-10T15:55:43.288Z,75.20
2022-08-10T15:58:02.430Z,73.90
2022-08-10T16:00:33.642Z,73.70
2022-08-10T16:03:06.020Z,72.30
2022-08-10T16:06:01.412Z,73.50
2022-08-10T16:08:56.087Z,75.20
2022-08-10T16:11:37.922Z,78.80
2022-08-10T16:14:09.129Z,77.20
2022-08-10T16:16:39.950Z,75.40
2022-08-10T16:19:22.237Z,73.80
2022-08-10T16:22:01.002Z,75.50
2022-08-10T16:24:34.167Z,77.90
2022-08-10T16:27:06.589Z,78.70
2022-08-10T16:29:54.515Z,75.30
2022-08-10T16:32:26.818Z,73.10
2022-08-10T16:34:56.489Z,75.70
2022-08-10T16:37:58.409Z,74.40
2022-08-10T16:40:21.165Z,74.50
2022-08-10T16:42:50.367Z,74.80
2022-08-10T16:45:21.110Z,71.90
2022-08-10T16:47:52.093Z,72.70
2022-08-10T16:50:23.587Z,70.30
2022-08-10T16:52:53.555Z,70.20
2022-08-10T16:55:24.647Z,68.10
2022-08-10T16:58:13.504Z,67.00
2022-08-10T17:00:42.907Z,66.20
2022-08-10T17:06:11.541Z,57.80
2022-08-10T17:08:48.581Z,57.60
2022-08-10T17:11:18.422Z,58.10
2022-08-10T17:13:47.250Z,58.60
2022-08-10T17:16:17.757Z,62.80
2022-08-10T17:18:50.949Z,66.30
2022-08-10T17:21:31.509Z,68.00
2022-08-10T17:24:02.764Z,71.10
2022-08-10T17:26:39.663Z,72.60
2022-08-10T17:29:17.153Z,73.90
2022-08-10T17:32:11.277Z,75.80
2022-08-10T17:40:13.485Z,80.70
2022-08-10T17:42:53.290Z,82.60
2022-08-10T17:45:48.851Z,86.60
2022-08-10T17:48:12.508Z,88.80
2022-08-10T17:50:46.840Z,91.40
2022-08-10T17:53:18.422Z,95.00
2022-08-10T17:55:50.577Z,95.60
2022-08-10T17:58:21.225Z,99.90
2022-08-10T18:00:51.700Z,99.90
2022-08-10T18:03:30.660Z,99.90
2022-08-10T18:06:02.663Z,99.90
2022-08-10T18:08:36.964Z,99.90
2022-08-10T18:11:12.844Z,99.90
2022-08-10T18:13:55.791Z,99.90
2022-08-10T18:16:32.413Z,99.90
2022-08-10T18:19:08.715Z,99.90
2022-08-10T18:21:40.015Z,99.90
2022-08-10T18:24:16.461Z,99.90
2022-08-10T18:26:50.808Z,99.90
2022-08-10T18:29:23.039Z,99.90
2022-08-10T18:31:57.503Z,99.90
2022-08-10T18:34:26.858Z,99.90
2022-08-10T18:36:56.253Z,99.90
2022-08-10T18:39:27.599Z,99.90
2022-08-10T18:42:06.078Z,99.90
2022-08-10T18:44:52.221Z,99.90
2022-08-10T18:47:24.702Z,99.90
2022-08-10T18:50:00.467Z,99.90
2022-08-10T18:52:31.055Z,99.90
2022-08-10T18:55:13.973Z,99.90
2022-08-10T18:57:58.227Z,99.90
2022-08-10T19:00:28.548Z,99.90
2022-08-10T19:03:11.291Z,99.90
2022-08-10T19:05:49.268Z,99.90
2022-08-10T19:08:31.304Z,99.90
2022-08-10T19:11:03.689Z,99.90
2022-08-10T19:13:34.859Z,99.90
2022-08-10T19:16:08.461Z,99.90
2022-08-10T19:18:39.431Z,99.90
2022-08-10T19:21:17.537Z,99.90
2022-08-10T19:23:55.485Z,99.90
2022-08-10T19:26:44.722Z,99.90
2022-08-10T19:30:11.910Z,99.90
2022-08-10T19:32:24.831Z,99.90
2022-08-10T19:34:59.362Z,99.90
2022-08-10T19:37:32.455Z,99.90
2022-08-10T19:40:40.839Z,99.90
2022-08-10T19:43:30.753Z,99.90
2022-08-10T19:46:11.895Z,99.90
2022-08-10T19:48:44.675Z,99.90
2022-08-10T19:51:15.784Z,99.90
2022-08-10T19:53:52.066Z,99.90
2022-08-10T19:56:34.090Z,99.90
2022-08-10T19:59:09.556Z,99.90
2022-08-10T20:01:55.604Z,99.90
2022-08-10T20:04:29.807Z,99.90
2022-08-10T20:07:07.544Z,99.90
2022-08-10T20:09:39.871Z,99.90
2022-08-10T20:12:09.441Z,99.90
2022-08-10T20:17:09.794Z,99.90
2022-08-10T20:19:52.840Z,99.90
2022-08-10T20:22:30.478Z,99.90
2022-08-10T20:27:59.028Z,99.90
2022-08-10T20:32:57.722Z,99.90
2022-08-10T20:38:03.384Z,99.90
2022-08-10T20:40:40.026Z,99.90
2022-08-10T20:43:12.497Z,99.90
2022-08-10T20:48:34.436Z,99.90
2022-08-10T20:51:04.756Z,99.90
2022-08-10T20:53:35.716Z,99.90
2022-08-10T20:56:13.951Z,99.90
2022-08-10T20:58:52.081Z,99.90
2022-08-10T21:01:26.232Z,99.90
2022-08-10T21:04:18.815Z,99.90
2022-08-10T21:07:04.138Z,99.90
2022-08-10T21:09:50.142Z,99.90
2022-08-10T21:12:36.554Z,99.90
2022-08-10T21:15:13.297Z,99.90
2022-08-10T21:17:47.791Z,99.90
2022-08-10T21:20:30.680Z,99.90
2022-08-10T21:23:05.076Z,99.90
2022-08-10T21:25:40.503Z,99.90
2022-08-10T21:28:13.494Z,99.90
2022-08-10T21:30:54.942Z,99.90
2022-08-10T21:33:26.333Z,99.90
2022-08-10T21:36:01.492Z,99.90
2022-08-10T21:38:35.268Z,99.90
2022-08-10T21:41:56.416Z,99.90
2022-08-10T21:45:01.066Z,99.90
2022-08-10T21:48:15.680Z,99.90
2022-08-10T21:51:05.975Z,99.90
2022-08-10T21:53:54.609Z,99.90
2022-08-10T21:56:46.064Z,99.90
2022-08-10T21:59:38.971Z,99.90
2022-08-10T22:05:39.313Z,99.90
2022-08-10T22:08:40.588Z,99.90
2022-08-10T22:11:37.540Z,99.90
2022-08-10T22:14:25.753Z,99.90
2022-08-10T22:17:59.971Z,99.90
2022-08-10T22:23:43.246Z,99.90
2022-08-10T22:26:35.698Z,99.90
2022-08-10T22:29:25.156Z,99.90
2022-08-10T22:31:25.744Z,99.90
2022-08-10T22:31:28.639Z,99.90
2022-08-10T22:32:32.917Z,99.90
2022-08-10T22:35:33.445Z,99.90
2022-08-10T22:38:25.033Z,99.90
2022-08-10T22:41:11.654Z,99.90
2022-08-10T22:43:58.579Z,99.90
2022-08-10T22:46:47.258Z,99.90
2022-08-10T22:49:21.169Z,99.90
2022-08-10T22:51:54.048Z,99.90
2022-08-10T22:54:42.343Z,99.90
2022-08-10T22:57:30.741Z,99.90
2022-08-10T23:00:00.068Z,99.90
2022-08-10T23:02:33.489Z,99.90
2022-08-10T23:05:07.899Z,99.90
2022-08-10T23:07:43.561Z,99.90
2022-08-10T23:10:14.169Z,99.90
2022-08-10T23:12:45.044Z,99.90
2022-08-10T23:15:35.728Z,99.90
2022-08-10T23:18:22.370Z,99.90
2022-08-10T23:20:52.178Z,99.90
2022-08-10T23:23:24.381Z,99.90
2022-08-10T23:25:56.715Z,99.90
2022-08-10T23:28:38.954Z,99.90
2022-08-10T23:32:00.890Z,99.90
2022-08-10T23:34:07.566Z,99.90
2022-08-10T23:36:38.860Z,99.90
2022-08-10T23:39:25.457Z,99.90
2022-08-10T23:42:00.739Z,99.90
2022-08-10T23:44:38.349Z,99.90
2022-08-10T23:47:08.064Z,99.90
2022-08-10T23:52:10.433Z,99.90
2022-08-10T23:54:44.756Z,99.90
2022-08-10T23:57:16.423Z,99.90
2022-08-10T23:59:50.333Z,99.90
